JBU1265 KMCO-MDST
Flight info
| Callsign | JBU1265 |
|---|---|
| Flight time | N/A |
| Altitude | 35000 |
| Route | DDANY3 JIPOD DCT VENDS Y304 SEKAR SEKAR2P |
| Aircraft | A320/M-SDE3FGHIRWY/LB1 |
Departure
| Time | 2026-04-26 17:27 |
|---|---|
| Airport | Orlando International Airport (KMCO) |
Arrival
| Time | N/A |
|---|---|
| Airport | Cibao International Airport (MDST) |
| Time | Latitude | Longitude | Altitude | Speed | Heading |
|---|---|---|---|---|---|
| 2026-04-26 17:05 | 28.40999 | -81.31574 | 92 ft | 0 kts | 267° |
| 2026-04-26 17:08 | 28.40999 | -81.31576 | 92 ft | 1 kts | 267° |
| 2026-04-26 17:09 | 28.40998 | -81.31582 | 93 ft | 0 kts | 267° |
| 2026-04-26 17:10 | 28.40998 | -81.31591 | 96 ft | 2 kts | 267° |
| 2026-04-26 17:10 | 28.40997 | -81.31614 | 105 ft | 4 kts | 267° |
| 2026-04-26 17:10 | 28.40996 | -81.31653 | 94 ft | 6 kts | 268° |
| 2026-04-26 17:10 | 28.40994 | -81.31707 | 94 ft | 8 kts | 270° |
| 2026-04-26 17:11 | 28.41007 | -81.31770 | 97 ft | 9 kts | 302° |
| 2026-04-26 17:11 | 28.41063 | -81.31803 | 95 ft | 10 kts | 353° |
| 2026-04-26 17:11 | 28.41135 | -81.31804 | 95 ft | 11 kts | 0° |
| 2026-04-26 17:11 | 28.41212 | -81.31804 | 97 ft | 11 kts | 359° |
| 2026-04-26 17:12 | 28.41371 | -81.31805 | 97 ft | 13 kts | 359° |
| 2026-04-26 17:12 | 28.41459 | -81.31794 | 98 ft | 13 kts | 12° |
| 2026-04-26 17:13 | 28.41660 | -81.31792 | 99 ft | 15 kts | 355° |
| 2026-04-26 17:13 | 28.41752 | -81.31840 | 99 ft | 14 kts | 309° |
| 2026-04-26 17:13 | 28.41909 | -81.31876 | 100 ft | 15 kts | 1° |
| 2026-04-26 17:14 | 28.42020 | -81.31875 | 98 ft | 17 kts | 1° |
| 2026-04-26 17:14 | 28.42184 | -81.31854 | 100 ft | 9 kts | 11° |
| 2026-04-26 17:14 | 28.42252 | -81.31838 | 99 ft | 10 kts | 10° |
| 2026-04-26 17:15 | 28.42400 | -81.31832 | 100 ft | 12 kts | 0° |
| 2026-04-26 17:15 | 28.42484 | -81.31832 | 101 ft | 12 kts | 360° |
| 2026-04-26 17:15 | 28.42574 | -81.31833 | 101 ft | 13 kts | 360° |
| 2026-04-26 17:16 | 28.42672 | -81.31834 | 101 ft | 15 kts | 359° |
| 2026-04-26 17:16 | 28.42775 | -81.31836 | 101 ft | 15 kts | 0° |
| 2026-04-26 17:16 | 28.42888 | -81.31837 | 98 ft | 17 kts | 359° |
| 2026-04-26 17:16 | 28.42979 | -81.31837 | 99 ft | 12 kts | 0° |
| 2026-04-26 17:17 | 28.43069 | -81.31837 | 99 ft | 14 kts | 359° |
| 2026-04-26 17:17 | 28.43169 | -81.31840 | 99 ft | 15 kts | 358° |
| 2026-04-26 17:17 | 28.43279 | -81.31841 | 98 ft | 15 kts | 359° |
| 2026-04-26 17:17 | 28.43391 | -81.31843 | 98 ft | 17 kts | 359° |
| 2026-04-26 17:18 | 28.43502 | -81.31845 | 98 ft | 16 kts | 360° |
| 2026-04-26 17:18 | 28.43618 | -81.31847 | 100 ft | 17 kts | 358° |
| 2026-04-26 17:18 | 28.43742 | -81.31841 | 99 ft | 18 kts | 358° |
| 2026-04-26 17:18 | 28.43834 | -81.31847 | 100 ft | 14 kts | 357° |
| 2026-04-26 17:19 | 28.44034 | -81.31889 | 100 ft | 12 kts | 347° |
| 2026-04-26 17:19 | 28.44113 | -81.31900 | 98 ft | 10 kts | 358° |
| 2026-04-26 17:19 | 28.44176 | -81.31901 | 98 ft | 10 kts | 359° |
| 2026-04-26 17:20 | 28.44248 | -81.31902 | 99 ft | 11 kts | 359° |
| 2026-04-26 17:20 | 28.44301 | -81.31903 | 100 ft | 11 kts | 359° |
| 2026-04-26 17:20 | 28.44393 | -81.31904 | 98 ft | 11 kts | 359° |
| 2026-04-26 17:20 | 28.44455 | -81.31905 | 100 ft | 9 kts | 359° |
| 2026-04-26 17:21 | 28.44525 | -81.31906 | 98 ft | 11 kts | 359° |
| 2026-04-26 17:21 | 28.44598 | -81.31907 | 98 ft | 9 kts | 359° |
| 2026-04-26 17:21 | 28.44664 | -81.31915 | 99 ft | 10 kts | 347° |
| 2026-04-26 17:21 | 28.44714 | -81.31969 | 99 ft | 11 kts | 281° |
| 2026-04-26 17:22 | 28.44714 | -81.32058 | 98 ft | 12 kts | 270° |
| 2026-04-26 17:22 | 28.44714 | -81.32083 | 98 ft | 1 kts | 270° |
| 2026-04-26 17:22 | 28.44714 | -81.32096 | 99 ft | 3 kts | 269° |
| 2026-04-26 17:22 | 28.44714 | -81.32108 | 98 ft | 0 kts | 270° |
| 2026-04-26 17:25 | 28.44714 | -81.32109 | 98 ft | 0 kts | 270° |
| 2026-04-26 17:25 | 28.44714 | -81.32121 | 98 ft | 2 kts | 270° |
| 2026-04-26 17:25 | 28.44714 | -81.32147 | 99 ft | 4 kts | 269° |
| 2026-04-26 17:25 | 28.44712 | -81.32188 | 98 ft | 6 kts | 266° |
| 2026-04-26 17:26 | 28.44688 | -81.32226 | 98 ft | 7 kts | 199° |
| 2026-04-26 17:26 | 28.44631 | -81.32232 | 100 ft | 17 kts | 181° |
| 2026-04-26 17:26 | 28.44288 | -81.32230 | 99 ft | 77 kts | 179° |
| 2026-04-26 17:26 | 28.43581 | -81.32220 | 99 ft | 124 kts | 179° |
| 2026-04-26 17:27 | 28.42585 | -81.32210 | 105 ft | 160 kts | 179° |
| 2026-04-26 17:27 | 28.41425 | -81.32190 | 444 ft | 165 kts | 181° |
| 2026-04-26 17:27 | 28.40290 | -81.32141 | 950 ft | 163 kts | 174° |
| 2026-04-26 17:27 | 28.39187 | -81.31822 | 1459 ft | 166 kts | 154° |
| 2026-04-26 17:28 | 28.38237 | -81.31010 | 1754 ft | 185 kts | 134° |
| 2026-04-26 17:28 | 28.37305 | -81.29838 | 1661 ft | 207 kts | 133° |
| 2026-04-26 17:28 | 28.36342 | -81.28635 | 1612 ft | 206 kts | 134° |
| 2026-04-26 17:28 | 28.35375 | -81.27430 | 1592 ft | 206 kts | 132° |
| 2026-04-26 17:29 | 28.34672 | -81.26013 | 1595 ft | 209 kts | 109° |
| 2026-04-26 17:29 | 28.34438 | -81.24955 | 1591 ft | 209 kts | 104° |
| 2026-04-26 17:29 | 28.33978 | -81.22816 | 1592 ft | 209 kts | 103° |
| 2026-04-26 17:29 | 28.33625 | -81.21218 | 1608 ft | 209 kts | 105° |
| 2026-04-26 17:30 | 28.33262 | -81.19621 | 1594 ft | 208 kts | 105° |
| 2026-04-26 17:30 | 28.32895 | -81.18025 | 1586 ft | 209 kts | 106° |
| 2026-04-26 17:30 | 28.32528 | -81.16432 | 1586 ft | 208 kts | 106° |
| 2026-04-26 17:30 | 28.32163 | -81.14846 | 1588 ft | 208 kts | 106° |
| 2026-04-26 17:31 | 28.31796 | -81.13255 | 1604 ft | 209 kts | 106° |
| 2026-04-26 17:31 | 28.31431 | -81.11671 | 1584 ft | 208 kts | 106° |
| 2026-04-26 17:31 | 28.31065 | -81.10085 | 1585 ft | 208 kts | 106° |
| 2026-04-26 17:31 | 28.30688 | -81.08452 | 1579 ft | 226 kts | 105° |
| 2026-04-26 17:32 | 28.30290 | -81.06717 | 1570 ft | 228 kts | 105° |
| 2026-04-26 17:32 | 28.29887 | -81.04968 | 1583 ft | 229 kts | 106° |
| 2026-04-26 17:32 | 28.29484 | -81.03215 | 1585 ft | 229 kts | 105° |
| 2026-04-26 17:32 | 28.29076 | -81.01445 | 1585 ft | 230 kts | 105° |
| 2026-04-26 17:33 | 28.28671 | -80.99697 | 1592 ft | 229 kts | 105° |
| 2026-04-26 17:33 | 28.28270 | -80.97952 | 1583 ft | 228 kts | 105° |
| 2026-04-26 17:33 | 28.27869 | -80.96208 | 1592 ft | 228 kts | 105° |